Sneeuw/IJzel/Bevriezing van: 17-01-2019 20:00 tot: 18-01-2019 08:00 waarschuwing voor: Sneeuw/IJzel/Bevriezing niveau: Geel info button

Onweer radar Meer informatie blitzortung!


waarschuwing voor winterse neerslag Meer informatie rain snow radar



METAR rapporten vliegvelden

   
EHRD - Rotterdam
Gewijzigd: 17-01-2019 15:55
Wat regen mogelijk, Bewolking  
Wat regen mogelijk, Bewolking  
   Wind: Westen 9 km/h
Wind: Westen 9 km/h
Temperatuur: 2°C
Voelt als: -2°C
Dauwpunt: 1°C
Vochtigheid: 93%
Barometer: 1005 hPa
Bewolking: Overcast
Zicht: meer dan 10 km
Bewolking: Licht bewolkt 1600 ft,
Grotendeels bewolkt 2200 ft,
Bewolking 2600 ft
EHRD 171455Z AUTO 28009KT 230V310 9999 -RA FEW016 BKN022 OVC026 02/01 Q1005 RERA TEMPO 7000
EBAW - Antwerpen
Gewijzigd: 17-01-2019 15:50
Grotendeels bewolkt  
Grotendeels bewolkt  
   Wind: WNW 17 km/h
Wind: WNW 17 km/h
Temperatuur: 4°C
Voelt als: -1°C
Dauwpunt: 0°C
Vochtigheid: 75%
Barometer: 1007 hPa
Bewolking: Mostly Cloudy
Zicht: meer dan 10 km
Bewolking: Licht bewolkt 900 ft,
Gedeeltelijk bewolkt 2000 ft,
Grotendeels bewolkt 2600 ft
EBAW 171450Z 29017KT 9999 FEW009 SCT020TCU BKN026 04/00 Q1007 TEMPO 30020G35KT 2500 SHRAGS BKN008CB
EHAM - Amsterdam
Gewijzigd: 17-01-2019 15:55
Nearby Showers, Gedeeltelijk bewolkt  
Nearby Showers, Gedeeltelijk bewolkt  
   Wind: Westen 11 km/h
Wind: Westen 11 km/h
Temperatuur: 3°C
Voelt als: -2°C
Dauwpunt: 1°C
Vochtigheid: 87%
Barometer: 1004 hPa
Bewolking: Partly Cloudy
Zicht: meer dan 10 km
Bewolking: Gedeeltelijk bewolkt 1600 ft
EHAM 171455Z 28011KT 9999 VCSH SCT016CB 03/01 Q1004 TEMPO 31020G30KT 6000 SHRAGS BECMG 33016KT
EHEH - Eindhoven
Gewijzigd: 17-01-2019 15:59
Grotendeels bewolkt  
Grotendeels bewolkt  
   Wind: Westen 12 km/h<br />Gust to 12 km/h
Wind: Westen 12 km/h
Gust to 12 km/h
Temperatuur: 4°C
Voelt als: -1°C
Dauwpunt: 1°C
Vochtigheid: 81%
Barometer: 1005 hPa
Bewolking: Mostly Cloudy
Zicht: meer dan 10 km
Bewolking: Licht bewolkt 1900 ft,
Grotendeels bewolkt 3700 ft
EHEH 171459Z AUTO 28012G22KT 230V330 9999 FEW019 BKN037 04/01 Q1005 BLU 28014KT 9999 SCT025 BKN035 TEMPO 30014G26KT 3000 SHRASN SCT005 BKN010 SCT018CB
  

Script ontwikkeld door  Saratoga-weather.org Aangepast voor de template door  Weerstation Leuven

U vindt ons ook hier:

Het Weer Aktueel

Apparatuur in gebruik:

Weerstation
Davis VP2

Weerprogramma
Cumulus

Weercomputer
Pipo X9 with Windows 10

Davis VP2

Cumulus

Pipo X9 with Windows 10